Quinebaug River @ Putnam, Ct

Quinebaug River at Putnam
 Total Drainage Area: 331 sq. miles 
 Drainage Area Controlled by Corps Dams: 231 sq. miles (70%) 
 Warning Flow/Stage: 3,440 cfs / 7.5 feet 
 Flood Flow/Stage: 5,730 cfs / 9.5 feet 
Date Time
(Eastern)
Stage
(ft)
Flow
(cfs)
CSM
(cfs / sq. mi.)
Jun-25 01:30 am 3.62 526 1.6
Jun-25 12:30 am 3.64 535 1.6
Jun-24 11:30 pm 3.63 531 1.6
Jun-24 10:30 pm 3.63 531 1.6
Jun-24 09:30 pm 3.64 535 1.6
Jun-24 08:30 pm 3.63 531 1.6
Jun-24 07:30 pm 3.65 539 1.6
Jun-24 06:30 pm 3.66 544 1.6
Jun-24 05:30 pm 3.69 557 1.7
Jun-24 04:30 pm 3.67 548 1.7
Jun-24 03:30 pm 3.69 557 1.7
Jun-24 02:30 pm 3.66 544 1.6
Jun-24 01:30 pm 3.73 577 1.7
Jun-24 12:30 pm 3.70 561 1.7
Jun-24 11:30 am 3.72 571 1.7
Jun-24 10:30 am 3.78 603 1.8
Jun-24 09:30 am 3.49 472 1.4
Jun-24 08:30 am 3.67 548 1.7
Jun-24 07:30 am 3.68 552 1.7
Jun-24 06:30 am 3.68 552 1.7
Jun-24 05:30 am 3.68 552 1.7
Jun-24 04:30 am 3.65 539 1.6
Jun-24 03:30 am 3.65 539 1.6
Jun-24 02:30 am 3.66 544 1.6
Jun-24 01:30 am 3.65 539 1.6
Report Generated June 25, 2024 02:32 am